sensor_id;sensor_type;location;lat;lon;timestamp;temperature;humidity
21387;DHT22;10854;45.922;6.716;2023-03-29T00:01:06;9.30;60.00
21387;DHT22;10854;45.922;6.716;2023-03-29T00:03:36;9.30;60.50
21387;DHT22;10854;45.922;6.716;2023-03-29T00:06:07;9.30;60.70
21387;DHT22;10854;45.922;6.716;2023-03-29T00:08:36;9.20;61.00
21387;DHT22;10854;45.922;6.716;2023-03-29T00:11:05;9.20;60.70
21387;DHT22;10854;45.922;6.716;2023-03-29T00:13:34;9.20;60.70
21387;DHT22;10854;45.922;6.716;2023-03-29T00:16:03;9.20;60.60
21387;DHT22;10854;45.922;6.716;2023-03-29T00:18:31;9.30;60.70
21387;DHT22;10854;45.922;6.716;2023-03-29T00:20:59;9.40;60.40
21387;DHT22;10854;45.922;6.716;2023-03-29T00:23:28;9.50;61.90
21387;DHT22;10854;45.922;6.716;2023-03-29T00:25:58;9.50;62.10
21387;DHT22;10854;45.922;6.716;2023-03-29T00:28:26;9.50;62.30
21387;DHT22;10854;45.922;6.716;2023-03-29T00:31:10;9.40;62.20
21387;DHT22;10854;45.922;6.716;2023-03-29T00:33:39;9.50;61.60
21387;DHT22;10854;45.922;6.716;2023-03-29T00:36:09;9.60;61.30
21387;DHT22;10854;45.922;6.716;2023-03-29T00:38:39;9.70;61.00
21387;DHT22;10854;45.922;6.716;2023-03-29T00:41:08;9.80;60.30
21387;DHT22;10854;45.922;6.716;2023-03-29T00:44:51;9.90;59.80
21387;DHT22;10854;45.922;6.716;2023-03-29T00:46:57;10.00;58.60
21387;DHT22;10854;45.922;6.716;2023-03-29T00:49:26;10.00;58.60
21387;DHT22;10854;45.922;6.716;2023-03-29T00:51:54;10.00;58.60
21387;DHT22;10854;45.922;6.716;2023-03-29T00:54:22;10.00;58.90
21387;DHT22;10854;45.922;6.716;2023-03-29T00:56:54;9.90;60.20
21387;DHT22;10854;45.922;6.716;2023-03-29T00:59:27;9.70;61.20
21387;DHT22;10854;45.922;6.716;2023-03-29T01:02:02;9.50;63.30
21387;DHT22;10854;45.922;6.716;2023-03-29T01:04:39;9.20;65.30
21387;DHT22;10854;45.922;6.716;2023-03-29T01:09:58;8.70;68.40
21387;DHT22;10854;45.922;6.716;2023-03-29T01:12:36;8.60;69.30
21387;DHT22;10854;45.922;6.716;2023-03-29T01:15:12;8.50;69.90
21387;DHT22;10854;45.922;6.716;2023-03-29T01:17:42;8.50;71.10
21387;DHT22;10854;45.922;6.716;2023-03-29T01:20:25;8.40;71.60
21387;DHT22;10854;45.922;6.716;2023-03-29T01:23:26;8.40;71.20
21387;DHT22;10854;45.922;6.716;2023-03-29T01:26:22;8.40;70.70
21387;DHT22;10854;45.922;6.716;2023-03-29T01:31:29;8.50;70.30
21387;DHT22;10854;45.922;6.716;2023-03-29T01:34:28;8.60;70.60
21387;DHT22;10854;45.922;6.716;2023-03-29T01:37:06;8.60;70.90
21387;DHT22;10854;45.922;6.716;2023-03-29T01:39:36;8.70;70.80
21387;DHT22;10854;45.922;6.716;2023-03-29T01:42:21;8.70;70.60
21387;DHT22;10854;45.922;6.716;2023-03-29T01:48:13;8.80;70.70
21387;DHT22;10854;45.922;6.716;2023-03-29T01:50:57;8.70;70.70
21387;DHT22;10854;45.922;6.716;2023-03-29T01:54:22;8.80;70.90
21387;DHT22;10854;45.922;6.716;2023-03-29T01:56:43;8.80;71.10
21387;DHT22;10854;45.922;6.716;2023-03-29T01:59:19;8.80;71.40
21387;DHT22;10854;45.922;6.716;2023-03-29T02:01:52;8.80;71.40
21387;DHT22;10854;45.922;6.716;2023-03-29T02:04:26;8.80;71.50
21387;DHT22;10854;45.922;6.716;2023-03-29T02:06:57;8.80;71.60
21387;DHT22;10854;45.922;6.716;2023-03-29T02:09:28;8.70;71.80
21387;DHT22;10854;45.922;6.716;2023-03-29T02:12:01;8.70;72.20
21387;DHT22;10854;45.922;6.716;2023-03-29T02:14:32;8.70;72.80
21387;DHT22;10854;45.922;6.716;2023-03-29T02:17:21;8.70;73.40
21387;DHT22;10854;45.922;6.716;2023-03-29T02:20:15;8.60;74.50
21387;DHT22;10854;45.922;6.716;2023-03-29T02:25:17;8.30;76.80
21387;DHT22;10854;45.922;6.716;2023-03-29T02:27:47;8.10;78.00
21387;DHT22;10854;45.922;6.716;2023-03-29T02:30:18;7.90;80.00
21387;DHT22;10854;45.922;6.716;2023-03-29T02:33:04;7.80;81.60
21387;DHT22;10854;45.922;6.716;2023-03-29T02:35:36;7.70;85.40
21387;DHT22;10854;45.922;6.716;2023-03-29T02:38:08;7.60;89.20
21387;DHT22;10854;45.922;6.716;2023-03-29T02:40:38;7.40;92.50
21387;DHT22;10854;45.922;6.716;2023-03-29T02:43:10;7.30;93.80
21387;DHT22;10854;45.922;6.716;2023-03-29T02:45:40;7.20;96.90
21387;DHT22;10854;45.922;6.716;2023-03-29T02:48:12;7.10;99.90
21387;DHT22;10854;45.922;6.716;2023-03-29T02:50:43;7.00;99.90
21387;DHT22;10854;45.922;6.716;2023-03-29T02:53:19;7.00;99.90
21387;DHT22;10854;45.922;6.716;2023-03-29T02:55:50;7.00;99.90
21387;DHT22;10854;45.922;6.716;2023-03-29T02:58:19;7.10;99.90
21387;DHT22;10854;45.922;6.716;2023-03-29T03:00:57;7.30;99.90
21387;DHT22;10854;45.922;6.716;2023-03-29T03:03:28;7.50;99.90
21387;DHT22;10854;45.922;6.716;2023-03-29T03:05:56;7.60;99.90
21387;DHT22;10854;45.922;6.716;2023-03-29T03:08:25;7.70;99.90
21387;DHT22;10854;45.922;6.716;2023-03-29T03:10:53;7.70;99.90
21387;DHT22;10854;45.922;6.716;2023-03-29T03:13:22;7.70;99.90
21387;DHT22;10854;45.922;6.716;2023-03-29T03:15:51;7.70;99.90
21387;DHT22;10854;45.922;6.716;2023-03-29T03:18:20;7.60;99.90
21387;DHT22;10854;45.922;6.716;2023-03-29T03:20:59;7.60;99.90
21387;DHT22;10854;45.922;6.716;2023-03-29T03:23:28;7.60;99.90
21387;DHT22;10854;45.922;6.716;2023-03-29T03:25:58;7.60;99.90
21387;DHT22;10854;45.922;6.716;2023-03-29T03:28:27;7.50;99.90
21387;DHT22;10854;45.922;6.716;2023-03-29T03:30:55;7.40;99.90
21387;DHT22;10854;45.922;6.716;2023-03-29T03:33:24;7.30;99.90
21387;DHT22;10854;45.922;6.716;2023-03-29T03:35:54;7.30;99.90
21387;DHT22;10854;45.922;6.716;2023-03-29T03:38:33;7.30;99.90
21387;DHT22;10854;45.922;6.716;2023-03-29T03:41:03;7.30;99.90
21387;DHT22;10854;45.922;6.716;2023-03-29T03:43:32;7.30;99.90
21387;DHT22;10854;45.922;6.716;2023-03-29T03:46:01;7.30;99.90
21387;DHT22;10854;45.922;6.716;2023-03-29T03:48:30;7.30;99.90
21387;DHT22;10854;45.922;6.716;2023-03-29T03:50:59;7.30;99.90
21387;DHT22;10854;45.922;6.716;2023-03-29T03:53:27;7.40;99.90
21387;DHT22;10854;45.922;6.716;2023-03-29T03:55:56;7.50;99.90
21387;DHT22;10854;45.922;6.716;2023-03-29T03:58:24;7.50;99.90
21387;DHT22;10854;45.922;6.716;2023-03-29T04:00:54;7.60;99.90
21387;DHT22;10854;45.922;6.716;2023-03-29T04:03:22;7.60;99.90
21387;DHT22;10854;45.922;6.716;2023-03-29T04:05:50;7.70;99.90
21387;DHT22;10854;45.922;6.716;2023-03-29T04:08:19;7.70;99.90
21387;DHT22;10854;45.922;6.716;2023-03-29T04:10:53;7.80;99.90
21387;DHT22;10854;45.922;6.716;2023-03-29T04:13:22;7.70;99.90
21387;DHT22;10854;45.922;6.716;2023-03-29T04:15:51;7.70;99.90
21387;DHT22;10854;45.922;6.716;2023-03-29T04:18:25;7.50;99.90
21387;DHT22;10854;45.922;6.716;2023-03-29T04:20:54;7.50;99.90
21387;DHT22;10854;45.922;6.716;2023-03-29T04:23:22;7.30;99.90
21387;DHT22;10854;45.922;6.716;2023-03-29T04:25:53;7.30;99.90
21387;DHT22;10854;45.922;6.716;2023-03-29T04:28:23;7.20;99.90
21387;DHT22;10854;45.922;6.716;2023-03-29T04:30:53;7.20;99.90
21387;DHT22;10854;45.922;6.716;2023-03-29T04:33:21;7.20;99.90
21387;DHT22;10854;45.922;6.716;2023-03-29T04:35:49;7.20;99.90
21387;DHT22;10854;45.922;6.716;2023-03-29T04:38:19;7.20;99.90
21387;DHT22;10854;45.922;6.716;2023-03-29T04:40:50;7.20;99.90
21387;DHT22;10854;45.922;6.716;2023-03-29T04:43:18;7.20;99.90
21387;DHT22;10854;45.922;6.716;2023-03-29T04:45:47;7.30;99.90
21387;DHT22;10854;45.922;6.716;2023-03-29T04:48:15;7.30;99.90
21387;DHT22;10854;45.922;6.716;2023-03-29T04:50:47;7.40;99.90
21387;DHT22;10854;45.922;6.716;2023-03-29T04:53:15;7.50;99.90
21387;DHT22;10854;45.922;6.716;2023-03-29T04:55:45;7.70;99.90
21387;DHT22;10854;45.922;6.716;2023-03-29T04:58:14;7.80;99.90
21387;DHT22;10854;45.922;6.716;2023-03-29T05:00:42;7.80;99.90
21387;DHT22;10854;45.922;6.716;2023-03-29T05:03:11;7.90;99.90
21387;DHT22;10854;45.922;6.716;2023-03-29T05:05:42;7.80;99.90
21387;DHT22;10854;45.922;6.716;2023-03-29T05:08:10;7.80;99.90
21387;DHT22;10854;45.922;6.716;2023-03-29T05:10:43;7.80;99.90
21387;DHT22;10854;45.922;6.716;2023-03-29T05:13:11;7.70;99.90
21387;DHT22;10854;45.922;6.716;2023-03-29T05:15:40;7.70;99.90
21387;DHT22;10854;45.922;6.716;2023-03-29T05:18:09;7.60;99.90
21387;DHT22;10854;45.922;6.716;2023-03-29T05:20:38;7.60;99.90
21387;DHT22;10854;45.922;6.716;2023-03-29T05:23:07;7.70;99.90
21387;DHT22;10854;45.922;6.716;2023-03-29T05:25:36;7.70;99.90
21387;DHT22;10854;45.922;6.716;2023-03-29T05:28:04;7.60;99.90
21387;DHT22;10854;45.922;6.716;2023-03-29T05:30:33;7.70;99.90
21387;DHT22;10854;45.922;6.716;2023-03-29T05:33:01;7.70;99.90
21387;DHT22;10854;45.922;6.716;2023-03-29T05:35:32;7.70;99.90
21387;DHT22;10854;45.922;6.716;2023-03-29T05:38:03;7.80;99.90
21387;DHT22;10854;45.922;6.716;2023-03-29T05:40:32;7.80;99.90
21387;DHT22;10854;45.922;6.716;2023-03-29T05:43:00;7.90;99.90
21387;DHT22;10854;45.922;6.716;2023-03-29T05:45:30;7.90;99.90
21387;DHT22;10854;45.922;6.716;2023-03-29T05:48:00;7.90;99.90
21387;DHT22;10854;45.922;6.716;2023-03-29T05:50:28;8.00;99.90
21387;DHT22;10854;45.922;6.716;2023-03-29T05:52:57;8.10;99.90
21387;DHT22;10854;45.922;6.716;2023-03-29T05:55:25;8.00;99.90
21387;DHT22;10854;45.922;6.716;2023-03-29T05:57:54;8.10;99.90
21387;DHT22;10854;45.922;6.716;2023-03-29T06:00:22;8.10;99.90
21387;DHT22;10854;45.922;6.716;2023-03-29T06:02:51;8.10;99.90
21387;DHT22;10854;45.922;6.716;2023-03-29T06:05:19;8.10;99.90
21387;DHT22;10854;45.922;6.716;2023-03-29T06:07:47;8.10;99.90
21387;DHT22;10854;45.922;6.716;2023-03-29T06:10:16;8.20;99.90
21387;DHT22;10854;45.922;6.716;2023-03-29T06:12:45;8.20;99.90
21387;DHT22;10854;45.922;6.716;2023-03-29T06:15:18;8.20;99.90
21387;DHT22;10854;45.922;6.716;2023-03-29T06:17:46;8.20;99.90
21387;DHT22;10854;45.922;6.716;2023-03-29T06:20:15;8.20;99.90
21387;DHT22;10854;45.922;6.716;2023-03-29T06:22:44;8.20;99.90
21387;DHT22;10854;45.922;6.716;2023-03-29T06:25:14;8.30;99.90
21387;DHT22;10854;45.922;6.716;2023-03-29T06:27:45;8.30;99.90
21387;DHT22;10854;45.922;6.716;2023-03-29T06:30:17;8.40;99.90
21387;DHT22;10854;45.922;6.716;2023-03-29T06:32:46;8.50;99.90
21387;DHT22;10854;45.922;6.716;2023-03-29T06:35:16;8.60;99.90
21387;DHT22;10854;45.922;6.716;2023-03-29T06:37:45;8.70;99.90
21387;DHT22;10854;45.922;6.716;2023-03-29T06:40:17;8.70;99.90
21387;DHT22;10854;45.922;6.716;2023-03-29T06:42:49;8.80;99.90
21387;DHT22;10854;45.922;6.716;2023-03-29T06:45:25;8.90;99.90
21387;DHT22;10854;45.922;6.716;2023-03-29T06:47:55;8.90;99.90
21387;DHT22;10854;45.922;6.716;2023-03-29T06:50:24;9.00;99.90
21387;DHT22;10854;45.922;6.716;2023-03-29T06:52:53;9.00;99.90
21387;DHT22;10854;45.922;6.716;2023-03-29T06:55:22;9.10;99.90
21387;DHT22;10854;45.922;6.716;2023-03-29T06:57:52;9.10;99.90
21387;DHT22;10854;45.922;6.716;2023-03-29T07:00:21;9.20;99.90
21387;DHT22;10854;45.922;6.716;2023-03-29T07:03:07;9.30;99.90
21387;DHT22;10854;45.922;6.716;2023-03-29T07:05:46;9.30;99.90
21387;DHT22;10854;45.922;6.716;2023-03-29T07:08:15;9.50;99.90
21387;DHT22;10854;45.922;6.716;2023-03-29T07:10:46;9.60;99.90
21387;DHT22;10854;45.922;6.716;2023-03-29T07:13:15;9.60;99.90
21387;DHT22;10854;45.922;6.716;2023-03-29T07:15:44;9.70;99.90
21387;DHT22;10854;45.922;6.716;2023-03-29T07:18:13;9.90;99.90
21387;DHT22;10854;45.922;6.716;2023-03-29T07:20:41;9.90;99.90
21387;DHT22;10854;45.922;6.716;2023-03-29T07:23:10;10.00;99.90
21387;DHT22;10854;45.922;6.716;2023-03-29T07:25:40;10.10;99.90
21387;DHT22;10854;45.922;6.716;2023-03-29T07:28:08;10.20;99.90
21387;DHT22;10854;45.922;6.716;2023-03-29T07:30:38;10.20;99.90
21387;DHT22;10854;45.922;6.716;2023-03-29T07:33:06;10.20;99.90
21387;DHT22;10854;45.922;6.716;2023-03-29T07:35:36;10.30;99.90
21387;DHT22;10854;45.922;6.716;2023-03-29T07:38:05;10.30;99.90
21387;DHT22;10854;45.922;6.716;2023-03-29T07:40:35;10.40;99.90
21387;DHT22;10854;45.922;6.716;2023-03-29T07:43:04;10.40;99.90
21387;DHT22;10854;45.922;6.716;2023-03-29T07:45:36;10.50;99.90
21387;DHT22;10854;45.922;6.716;2023-03-29T07:48:04;10.50;99.90
21387;DHT22;10854;45.922;6.716;2023-03-29T07:50:33;10.60;99.90
21387;DHT22;10854;45.922;6.716;2023-03-29T07:53:02;10.70;99.90
21387;DHT22;10854;45.922;6.716;2023-03-29T07:55:31;10.80;99.90
21387;DHT22;10854;45.922;6.716;2023-03-29T07:58:00;10.80;99.90
21387;DHT22;10854;45.922;6.716;2023-03-29T08:00:28;11.00;99.90
21387;DHT22;10854;45.922;6.716;2023-03-29T08:02:57;11.00;99.90
21387;DHT22;10854;45.922;6.716;2023-03-29T08:05:25;11.20;99.90
21387;DHT22;10854;45.922;6.716;2023-03-29T08:08:00;11.30;99.90
21387;DHT22;10854;45.922;6.716;2023-03-29T08:10:28;11.40;99.90
21387;DHT22;10854;45.922;6.716;2023-03-29T08:12:56;11.60;99.90
21387;DHT22;10854;45.922;6.716;2023-03-29T08:15:25;11.60;99.90
21387;DHT22;10854;45.922;6.716;2023-03-29T08:17:54;11.70;99.90
21387;DHT22;10854;45.922;6.716;2023-03-29T08:20:23;11.70;99.90
21387;DHT22;10854;45.922;6.716;2023-03-29T08:22:52;11.70;99.30
21387;DHT22;10854;45.922;6.716;2023-03-29T08:25:21;11.60;98.70
21387;DHT22;10854;45.922;6.716;2023-03-29T08:27:52;11.60;98.80
21387;DHT22;10854;45.922;6.716;2023-03-29T08:30:21;11.60;98.90
21387;DHT22;10854;45.922;6.716;2023-03-29T08:32:49;11.50;99.00
21387;DHT22;10854;45.922;6.716;2023-03-29T08:35:19;11.50;99.00
21387;DHT22;10854;45.922;6.716;2023-03-29T08:37:51;11.40;99.80
21387;DHT22;10854;45.922;6.716;2023-03-29T08:40:23;11.20;99.90
21387;DHT22;10854;45.922;6.716;2023-03-29T08:48:28;11.00;99.90
21387;DHT22;10854;45.922;6.716;2023-03-29T08:51:05;11.00;99.90
21387;DHT22;10854;45.922;6.716;2023-03-29T08:53:48;11.10;99.90
21387;DHT22;10854;45.922;6.716;2023-03-29T08:56:22;11.20;99.90
21387;DHT22;10854;45.922;6.716;2023-03-29T08:58:53;11.30;99.90
21387;DHT22;10854;45.922;6.716;2023-03-29T09:01:24;11.40;99.90
21387;DHT22;10854;45.922;6.716;2023-03-29T09:04:15;11.60;99.90
21387;DHT22;10854;45.922;6.716;2023-03-29T09:06:45;11.80;99.90
21387;DHT22;10854;45.922;6.716;2023-03-29T09:09:17;12.00;99.90
21387;DHT22;10854;45.922;6.716;2023-03-29T09:11:59;12.10;99.90
21387;DHT22;10854;45.922;6.716;2023-03-29T09:17:45;12.50;99.90
21387;DHT22;10854;45.922;6.716;2023-03-29T09:23:32;12.60;99.90
21387;DHT22;10854;45.922;6.716;2023-03-29T09:32:22;12.70;99.90
21387;DHT22;10854;45.922;6.716;2023-03-29T09:35:22;12.70;99.90
21387;DHT22;10854;45.922;6.716;2023-03-29T09:37:52;12.80;99.90
21387;DHT22;10854;45.922;6.716;2023-03-29T09:41:13;12.90;99.90
21387;DHT22;10854;45.922;6.716;2023-03-29T09:43:29;13.10;99.90
21387;DHT22;10854;45.922;6.716;2023-03-29T09:46:03;13.20;99.90
21387;DHT22;10854;45.922;6.716;2023-03-29T09:48:37;13.20;99.40
21387;DHT22;10854;45.922;6.716;2023-03-29T09:51:08;13.20;97.00
21387;DHT22;10854;45.922;6.716;2023-03-29T09:53:37;13.10;96.70
21387;DHT22;10854;45.922;6.716;2023-03-29T09:56:06;13.20;96.90
21387;DHT22;10854;45.922;6.716;2023-03-29T09:58:36;13.20;96.90
21387;DHT22;10854;45.922;6.716;2023-03-29T10:01:06;13.30;96.20
21387;DHT22;10854;45.922;6.716;2023-03-29T10:03:38;13.50;96.60
21387;DHT22;10854;45.922;6.716;2023-03-29T10:06:10;13.70;96.70
21387;DHT22;10854;45.922;6.716;2023-03-29T10:08:59;13.90;96.10
21387;DHT22;10854;45.922;6.716;2023-03-29T10:11:32;14.00;95.10
21387;DHT22;10854;45.922;6.716;2023-03-29T10:14:16;14.00;93.60
21387;DHT22;10854;45.922;6.716;2023-03-29T10:16:54;13.90;93.30
21387;DHT22;10854;45.922;6.716;2023-03-29T10:19:29;13.90;93.10
21387;DHT22;10854;45.922;6.716;2023-03-29T10:22:07;13.90;92.80
21387;DHT22;10854;45.922;6.716;2023-03-29T10:24:48;14.00;92.80
21387;DHT22;10854;45.922;6.716;2023-03-29T10:27:23;14.00;92.30
21387;DHT22;10854;45.922;6.716;2023-03-29T10:29:54;14.10;91.90
21387;DHT22;10854;45.922;6.716;2023-03-29T10:32:34;14.00;91.20
21387;DHT22;10854;45.922;6.716;2023-03-29T10:35:08;13.90;91.10
21387;DHT22;10854;45.922;6.716;2023-03-29T10:37:42;13.90;91.60
21387;DHT22;10854;45.922;6.716;2023-03-29T10:40:30;14.00;92.10
21387;DHT22;10854;45.922;6.716;2023-03-29T10:43:26;14.10;92.40
21387;DHT22;10854;45.922;6.716;2023-03-29T10:49:18;14.20;92.20
21387;DHT22;10854;45.922;6.716;2023-03-29T10:51:48;14.20;92.60
21387;DHT22;10854;45.922;6.716;2023-03-29T10:54:21;14.10;92.70
21387;DHT22;10854;45.922;6.716;2023-03-29T10:56:56;14.00;93.00
21387;DHT22;10854;45.922;6.716;2023-03-29T11:16:12;13.70;98.80
21387;DHT22;10854;45.922;6.716;2023-03-29T11:19:07;13.60;99.10
21387;DHT22;10854;45.922;6.716;2023-03-29T11:21:53;13.60;99.90
21387;DHT22;10854;45.922;6.716;2023-03-29T11:24:34;13.70;99.90
21387;DHT22;10854;45.922;6.716;2023-03-29T11:27:21;13.70;99.90
21387;DHT22;10854;45.922;6.716;2023-03-29T11:30:21;13.70;99.90
21387;DHT22;10854;45.922;6.716;2023-03-29T11:33:15;13.70;99.90
21387;DHT22;10854;45.922;6.716;2023-03-29T11:36:33;13.70;99.80
21387;DHT22;10854;45.922;6.716;2023-03-29T11:41:54;13.80;98.90
21387;DHT22;10854;45.922;6.716;2023-03-29T11:44:29;13.80;97.80
21387;DHT22;10854;45.922;6.716;2023-03-29T11:47:02;13.80;96.70
21387;DHT22;10854;45.922;6.716;2023-03-29T11:49:39;13.80;96.20
21387;DHT22;10854;45.922;6.716;2023-03-29T11:52:15;13.70;97.00
21387;DHT22;10854;45.922;6.716;2023-03-29T11:54:51;13.60;97.50
21387;DHT22;10854;45.922;6.716;2023-03-29T11:57:33;13.60;97.70
21387;DHT22;10854;45.922;6.716;2023-03-29T12:00:13;13.50;98.10
21387;DHT22;10854;45.922;6.716;2023-03-29T12:05:52;13.40;99.90
21387;DHT22;10854;45.922;6.716;2023-03-29T12:14:21;13.30;99.90
21387;DHT22;10854;45.922;6.716;2023-03-29T12:16:57;13.40;99.90
21387;DHT22;10854;45.922;6.716;2023-03-29T12:19:33;13.50;99.90
21387;DHT22;10854;45.922;6.716;2023-03-29T12:22:05;13.60;99.90
21387;DHT22;10854;45.922;6.716;2023-03-29T12:24:38;13.70;99.90
21387;DHT22;10854;45.922;6.716;2023-03-29T12:27:31;13.70;99.90
21387;DHT22;10854;45.922;6.716;2023-03-29T12:35:55;14.00;96.30
21387;DHT22;10854;45.922;6.716;2023-03-29T12:38:27;14.00;95.50
21387;DHT22;10854;45.922;6.716;2023-03-29T12:41:03;13.90;95.40
21387;DHT22;10854;45.922;6.716;2023-03-29T12:43:39;13.90;95.30
21387;DHT22;10854;45.922;6.716;2023-03-29T12:46:18;13.70;97.10
21387;DHT22;10854;45.922;6.716;2023-03-29T12:48:52;13.60;99.00
21387;DHT22;10854;45.922;6.716;2023-03-29T12:51:29;13.40;99.90
21387;DHT22;10854;45.922;6.716;2023-03-29T12:54:13;13.30;99.90
21387;DHT22;10854;45.922;6.716;2023-03-29T12:59:36;13.00;99.90
21387;DHT22;10854;45.922;6.716;2023-03-29T13:04:55;12.60;99.90
21387;DHT22;10854;45.922;6.716;2023-03-29T13:09:56;12.50;99.90
21387;DHT22;10854;45.922;6.716;2023-03-29T13:15:22;12.40;99.90
21387;DHT22;10854;45.922;6.716;2023-03-29T13:20:45;12.40;99.90
21387;DHT22;10854;45.922;6.716;2023-03-29T13:23:25;12.40;99.90
21387;DHT22;10854;45.922;6.716;2023-03-29T13:26:33;12.50;99.90
21387;DHT22;10854;45.922;6.716;2023-03-29T13:38:46;13.70;99.90
21387;DHT22;10854;45.922;6.716;2023-03-29T13:44:32;14.30;98.00
21387;DHT22;10854;45.922;6.716;2023-03-29T13:49:52;15.00;95.70
21387;DHT22;10854;45.922;6.716;2023-03-29T13:52:36;15.30;94.20
21387;DHT22;10854;45.922;6.716;2023-03-29T13:55:14;15.50;92.00
21387;DHT22;10854;45.922;6.716;2023-03-29T13:58:01;15.70;91.20
21387;DHT22;10854;45.922;6.716;2023-03-29T14:00:42;16.00;90.70
21387;DHT22;10854;45.922;6.716;2023-03-29T14:03:14;16.40;87.30
21387;DHT22;10854;45.922;6.716;2023-03-29T14:05:58;16.50;85.60
21387;DHT22;10854;45.922;6.716;2023-03-29T14:08:36;16.50;82.90
21387;DHT22;10854;45.922;6.716;2023-03-29T14:11:11;16.50;83.20
21387;DHT22;10854;45.922;6.716;2023-03-29T14:13:45;16.60;82.70
21387;DHT22;10854;45.922;6.716;2023-03-29T14:16:14;16.50;81.30
21387;DHT22;10854;45.922;6.716;2023-03-29T14:18:42;16.40;81.60
21387;DHT22;10854;45.922;6.716;2023-03-29T14:21:19;16.10;81.10
21387;DHT22;10854;45.922;6.716;2023-03-29T14:23:58;16.00;81.60
21387;DHT22;10854;45.922;6.716;2023-03-29T14:26:32;15.80;81.80
21387;DHT22;10854;45.922;6.716;2023-03-29T14:29:05;15.70;81.70
21387;DHT22;10854;45.922;6.716;2023-03-29T14:31:36;15.70;82.10
21387;DHT22;10854;45.922;6.716;2023-03-29T14:34:14;15.70;81.70
21387;DHT22;10854;45.922;6.716;2023-03-29T14:36:47;15.70;80.80
21387;DHT22;10854;45.922;6.716;2023-03-29T14:39:16;15.90;80.80
21387;DHT22;10854;45.922;6.716;2023-03-29T14:41:51;16.00;80.20
21387;DHT22;10854;45.922;6.716;2023-03-29T14:44:22;16.20;79.80
21387;DHT22;10854;45.922;6.716;2023-03-29T14:46:52;16.30;79.30
21387;DHT22;10854;45.922;6.716;2023-03-29T14:49:21;16.30;78.40
21387;DHT22;10854;45.922;6.716;2023-03-29T14:51:51;16.30;78.50
21387;DHT22;10854;45.922;6.716;2023-03-29T14:56:51;16.20;79.20
21387;DHT22;10854;45.922;6.716;2023-03-29T15:01:56;16.10;79.50
21387;DHT22;10854;45.922;6.716;2023-03-29T15:04:32;16.00;79.40
21387;DHT22;10854;45.922;6.716;2023-03-29T15:07:02;15.90;80.20
21387;DHT22;10854;45.922;6.716;2023-03-29T15:09:33;15.80;80.80
21387;DHT22;10854;45.922;6.716;2023-03-29T15:12:03;15.70;81.20
21387;DHT22;10854;45.922;6.716;2023-03-29T15:14:32;15.60;81.80
21387;DHT22;10854;45.922;6.716;2023-03-29T15:17:03;15.60;82.40
21387;DHT22;10854;45.922;6.716;2023-03-29T15:19:33;15.50;82.90
21387;DHT22;10854;45.922;6.716;2023-03-29T15:22:03;15.40;83.30
21387;DHT22;10854;45.922;6.716;2023-03-29T15:24:47;15.30;83.60
21387;DHT22;10854;45.922;6.716;2023-03-29T15:27:17;15.30;84.20
21387;DHT22;10854;45.922;6.716;2023-03-29T15:29:46;15.30;84.00
21387;DHT22;10854;45.922;6.716;2023-03-29T15:32:23;15.30;84.30
21387;DHT22;10854;45.922;6.716;2023-03-29T15:34:59;15.30;84.00
21387;DHT22;10854;45.922;6.716;2023-03-29T15:37:28;15.40;83.30
21387;DHT22;10854;45.922;6.716;2023-03-29T15:39:57;15.40;83.30
21387;DHT22;10854;45.922;6.716;2023-03-29T15:42:25;15.40;83.50
21387;DHT22;10854;45.922;6.716;2023-03-29T15:44:54;15.40;84.10
21387;DHT22;10854;45.922;6.716;2023-03-29T15:47:25;15.40;84.60
21387;DHT22;10854;45.922;6.716;2023-03-29T15:49:55;15.50;85.10
21387;DHT22;10854;45.922;6.716;2023-03-29T15:52:23;15.60;85.30
21387;DHT22;10854;45.922;6.716;2023-03-29T15:54:52;15.70;85.00
21387;DHT22;10854;45.922;6.716;2023-03-29T15:57:20;15.80;84.90
21387;DHT22;10854;45.922;6.716;2023-03-29T15:59:49;15.90;84.30
21387;DHT22;10854;45.922;6.716;2023-03-29T16:02:19;15.90;83.60
21387;DHT22;10854;45.922;6.716;2023-03-29T16:04:49;15.90;83.30
21387;DHT22;10854;45.922;6.716;2023-03-29T16:07:17;15.90;83.30
21387;DHT22;10854;45.922;6.716;2023-03-29T16:09:47;15.90;82.90
21387;DHT22;10854;45.922;6.716;2023-03-29T16:12:15;16.00;82.10
21387;DHT22;10854;45.922;6.716;2023-03-29T16:14:44;16.00;82.30
21387;DHT22;10854;45.922;6.716;2023-03-29T16:17:13;16.00;82.90
21387;DHT22;10854;45.922;6.716;2023-03-29T16:19:42;16.00;83.10
21387;DHT22;10854;45.922;6.716;2023-03-29T16:22:11;16.00;83.20
21387;DHT22;10854;45.922;6.716;2023-03-29T16:24:39;16.10;82.60
21387;DHT22;10854;45.922;6.716;2023-03-29T16:27:08;16.30;81.00
21387;DHT22;10854;45.922;6.716;2023-03-29T16:29:36;16.40;79.90
21387;DHT22;10854;45.922;6.716;2023-03-29T16:32:05;16.50;79.50
21387;DHT22;10854;45.922;6.716;2023-03-29T16:34:35;16.40;79.20
21387;DHT22;10854;45.922;6.716;2023-03-29T16:37:04;16.20;79.10
21387;DHT22;10854;45.922;6.716;2023-03-29T16:39:33;16.10;79.50
21387;DHT22;10854;45.922;6.716;2023-03-29T16:42:01;16.00;80.30
21387;DHT22;10854;45.922;6.716;2023-03-29T16:44:30;15.90;81.60
21387;DHT22;10854;45.922;6.716;2023-03-29T16:46:59;15.80;81.20
21387;DHT22;10854;45.922;6.716;2023-03-29T16:49:27;15.70;81.40
21387;DHT22;10854;45.922;6.716;2023-03-29T16:51:56;15.60;81.60
21387;DHT22;10854;45.922;6.716;2023-03-29T16:54:24;15.60;82.30
21387;DHT22;10854;45.922;6.716;2023-03-29T16:56:56;15.50;82.80
21387;DHT22;10854;45.922;6.716;2023-03-29T16:59:25;15.50;83.30
21387;DHT22;10854;45.922;6.716;2023-03-29T17:01:53;15.40;83.70
21387;DHT22;10854;45.922;6.716;2023-03-29T17:04:22;15.30;83.90
21387;DHT22;10854;45.922;6.716;2023-03-29T17:06:50;15.30;84.20
21387;DHT22;10854;45.922;6.716;2023-03-29T17:09:19;15.30;84.90
21387;DHT22;10854;45.922;6.716;2023-03-29T17:11:48;15.30;85.20
21387;DHT22;10854;45.922;6.716;2023-03-29T17:14:16;15.20;85.50
21387;DHT22;10854;45.922;6.716;2023-03-29T17:16:45;15.20;85.90
21387;DHT22;10854;45.922;6.716;2023-03-29T17:19:13;15.10;85.90
21387;DHT22;10854;45.922;6.716;2023-03-29T17:21:41;15.10;86.20
21387;DHT22;10854;45.922;6.716;2023-03-29T17:24:10;15.00;86.20
21387;DHT22;10854;45.922;6.716;2023-03-29T17:26:39;15.00;86.10
21387;DHT22;10854;45.922;6.716;2023-03-29T17:29:08;14.90;85.90
21387;DHT22;10854;45.922;6.716;2023-03-29T17:31:36;14.90;86.30
21387;DHT22;10854;45.922;6.716;2023-03-29T17:34:14;14.90;86.70
21387;DHT22;10854;45.922;6.716;2023-03-29T17:36:44;14.80;87.20
21387;DHT22;10854;45.922;6.716;2023-03-29T17:39:12;14.70;87.60
21387;DHT22;10854;45.922;6.716;2023-03-29T17:41:43;14.60;88.30
21387;DHT22;10854;45.922;6.716;2023-03-29T17:44:12;14.50;88.80
21387;DHT22;10854;45.922;6.716;2023-03-29T17:46:41;14.50;89.30
21387;DHT22;10854;45.922;6.716;2023-03-29T17:49:09;14.40;89.50
21387;DHT22;10854;45.922;6.716;2023-03-29T17:51:38;14.40;89.90
21387;DHT22;10854;45.922;6.716;2023-03-29T17:54:06;14.30;90.00